sensor_id;sensor_type;location;lat;lon;timestamp;temperature;humidity
5200;DHT22;2619;47.868;11.892;2023-03-14T00:02:19;8.40;99.90
5200;DHT22;2619;47.868;11.892;2023-03-14T00:04:44;8.30;99.90
5200;DHT22;2619;47.868;11.892;2023-03-14T00:07:11;8.20;99.90
5200;DHT22;2619;47.868;11.892;2023-03-14T00:09:37;8.10;99.90
5200;DHT22;2619;47.868;11.892;2023-03-14T00:12:03;8.30;99.90
5200;DHT22;2619;47.868;11.892;2023-03-14T00:14:31;8.40;99.90
5200;DHT22;2619;47.868;11.892;2023-03-14T00:16:56;8.40;99.90
5200;DHT22;2619;47.868;11.892;2023-03-14T00:19:22;8.40;99.90
5200;DHT22;2619;47.868;11.892;2023-03-14T00:21:48;8.30;99.90
5200;DHT22;2619;47.868;11.892;2023-03-14T00:24:13;8.30;99.90
5200;DHT22;2619;47.868;11.892;2023-03-14T00:26:39;8.40;99.90
5200;DHT22;2619;47.868;11.892;2023-03-14T00:29:05;8.40;99.90
5200;DHT22;2619;47.868;11.892;2023-03-14T00:31:30;8.40;99.90
5200;DHT22;2619;47.868;11.892;2023-03-14T00:33:56;8.40;99.90
5200;DHT22;2619;47.868;11.892;2023-03-14T00:36:22;8.40;99.90
5200;DHT22;2619;47.868;11.892;2023-03-14T00:38:50;8.40;99.90
5200;DHT22;2619;47.868;11.892;2023-03-14T00:41:23;8.40;99.90
5200;DHT22;2619;47.868;11.892;2023-03-14T00:43:49;8.30;99.90
5200;DHT22;2619;47.868;11.892;2023-03-14T00:46:15;8.30;99.90
5200;DHT22;2619;47.868;11.892;2023-03-14T00:48:41;8.30;99.90
5200;DHT22;2619;47.868;11.892;2023-03-14T00:51:08;8.20;99.90
5200;DHT22;2619;47.868;11.892;2023-03-14T00:53:38;8.10;99.90
5200;DHT22;2619;47.868;11.892;2023-03-14T00:56:06;8.00;99.90
5200;DHT22;2619;47.868;11.892;2023-03-14T00:58:32;8.00;99.90
5200;DHT22;2619;47.868;11.892;2023-03-14T01:00:57;7.90;99.90
5200;DHT22;2619;47.868;11.892;2023-03-14T01:03:23;7.70;99.90
5200;DHT22;2619;47.868;11.892;2023-03-14T01:05:49;7.60;99.90
5200;DHT22;2619;47.868;11.892;2023-03-14T01:08:16;7.60;99.90
5200;DHT22;2619;47.868;11.892;2023-03-14T01:10:42;7.70;99.90
5200;DHT22;2619;47.868;11.892;2023-03-14T01:13:08;7.80;99.90
5200;DHT22;2619;47.868;11.892;2023-03-14T01:15:35;7.90;99.90
5200;DHT22;2619;47.868;11.892;2023-03-14T01:18:01;7.90;99.90
5200;DHT22;2619;47.868;11.892;2023-03-14T01:20:27;8.10;99.90
5200;DHT22;2619;47.868;11.892;2023-03-14T01:22:53;8.30;99.90
5200;DHT22;2619;47.868;11.892;2023-03-14T01:25:19;8.40;99.90
5200;DHT22;2619;47.868;11.892;2023-03-14T01:27:45;8.30;99.90
5200;DHT22;2619;47.868;11.892;2023-03-14T01:30:12;8.40;99.90
5200;DHT22;2619;47.868;11.892;2023-03-14T01:32:38;8.50;99.90
5200;DHT22;2619;47.868;11.892;2023-03-14T01:35:04;8.70;99.90
5200;DHT22;2619;47.868;11.892;2023-03-14T01:37:30;8.80;99.90
5200;DHT22;2619;47.868;11.892;2023-03-14T01:39:55;8.80;99.90
5200;DHT22;2619;47.868;11.892;2023-03-14T01:42:21;8.90;99.90
5200;DHT22;2619;47.868;11.892;2023-03-14T01:47:18;9.00;99.90
5200;DHT22;2619;47.868;11.892;2023-03-14T01:50:08;8.90;99.90
5200;DHT22;2619;47.868;11.892;2023-03-14T01:52:41;8.80;99.90
5200;DHT22;2619;47.868;11.892;2023-03-14T01:55:15;8.70;99.90
5200;DHT22;2619;47.868;11.892;2023-03-14T01:57:46;8.70;99.90
5200;DHT22;2619;47.868;11.892;2023-03-14T02:00:15;8.70;99.90
5200;DHT22;2619;47.868;11.892;2023-03-14T02:02:47;8.70;99.90
5200;DHT22;2619;47.868;11.892;2023-03-14T02:05:18;8.70;99.90
5200;DHT22;2619;47.868;11.892;2023-03-14T02:07:54;8.60;99.90
5200;DHT22;2619;47.868;11.892;2023-03-14T02:10:27;8.50;99.90
5200;DHT22;2619;47.868;11.892;2023-03-14T02:12:55;8.50;99.90
5200;DHT22;2619;47.868;11.892;2023-03-14T02:15:22;8.50;99.90
5200;DHT22;2619;47.868;11.892;2023-03-14T02:17:48;8.40;99.90
5200;DHT22;2619;47.868;11.892;2023-03-14T02:22:50;8.60;99.90
5200;DHT22;2619;47.868;11.892;2023-03-14T02:27:57;8.60;99.90
5200;DHT22;2619;47.868;11.892;2023-03-14T02:30:29;8.60;99.90
5200;DHT22;2619;47.868;11.892;2023-03-14T02:33:05;8.60;99.90
5200;DHT22;2619;47.868;11.892;2023-03-14T02:35:47;8.60;99.90
5200;DHT22;2619;47.868;11.892;2023-03-14T02:40:47;8.70;99.90
5200;DHT22;2619;47.868;11.892;2023-03-14T02:43:13;8.60;99.90
5200;DHT22;2619;47.868;11.892;2023-03-14T02:45:41;8.60;99.90
5200;DHT22;2619;47.868;11.892;2023-03-14T02:48:26;8.60;99.90
5200;DHT22;2619;47.868;11.892;2023-03-14T02:50:54;8.50;99.90
5200;DHT22;2619;47.868;11.892;2023-03-14T02:53:26;8.50;99.90
5200;DHT22;2619;47.868;11.892;2023-03-14T02:55:52;8.50;99.90
5200;DHT22;2619;47.868;11.892;2023-03-14T02:58:18;8.50;99.90
5200;DHT22;2619;47.868;11.892;2023-03-14T03:00:45;8.40;99.90
5200;DHT22;2619;47.868;11.892;2023-03-14T03:03:11;8.40;99.90
5200;DHT22;2619;47.868;11.892;2023-03-14T03:05:37;8.40;99.90
5200;DHT22;2619;47.868;11.892;2023-03-14T03:08:03;8.30;99.90
5200;DHT22;2619;47.868;11.892;2023-03-14T03:10:28;8.30;99.90
5200;DHT22;2619;47.868;11.892;2023-03-14T03:12:54;8.30;99.90
5200;DHT22;2619;47.868;11.892;2023-03-14T03:15:20;8.30;99.90
5200;DHT22;2619;47.868;11.892;2023-03-14T03:17:46;8.20;99.90
5200;DHT22;2619;47.868;11.892;2023-03-14T03:20:11;8.20;99.90
5200;DHT22;2619;47.868;11.892;2023-03-14T03:22:38;8.30;99.90
5200;DHT22;2619;47.868;11.892;2023-03-14T03:25:05;8.20;99.90
5200;DHT22;2619;47.868;11.892;2023-03-14T03:27:33;8.10;99.90
5200;DHT22;2619;47.868;11.892;2023-03-14T03:29:59;8.10;99.90
5200;DHT22;2619;47.868;11.892;2023-03-14T03:32:25;8.00;99.90
5200;DHT22;2619;47.868;11.892;2023-03-14T03:34:51;8.00;99.90
5200;DHT22;2619;47.868;11.892;2023-03-14T03:37:17;7.90;99.90
5200;DHT22;2619;47.868;11.892;2023-03-14T03:39:43;7.90;99.90
5200;DHT22;2619;47.868;11.892;2023-03-14T03:42:09;7.90;99.90
5200;DHT22;2619;47.868;11.892;2023-03-14T03:44:35;7.80;99.90
5200;DHT22;2619;47.868;11.892;2023-03-14T03:47:00;7.80;99.90
5200;DHT22;2619;47.868;11.892;2023-03-14T03:49:31;7.70;99.90
5200;DHT22;2619;47.868;11.892;2023-03-14T03:51:57;7.80;99.90
5200;DHT22;2619;47.868;11.892;2023-03-14T03:54:22;7.70;99.90
5200;DHT22;2619;47.868;11.892;2023-03-14T03:56:48;7.60;99.90
5200;DHT22;2619;47.868;11.892;2023-03-14T03:59:14;7.60;99.90
5200;DHT22;2619;47.868;11.892;2023-03-14T04:01:39;7.60;99.90
5200;DHT22;2619;47.868;11.892;2023-03-14T04:04:05;7.50;99.90
5200;DHT22;2619;47.868;11.892;2023-03-14T04:06:31;7.50;99.90
5200;DHT22;2619;47.868;11.892;2023-03-14T04:08:56;7.40;99.90
5200;DHT22;2619;47.868;11.892;2023-03-14T04:11:22;7.40;99.90
5200;DHT22;2619;47.868;11.892;2023-03-14T04:13:47;7.30;99.90
5200;DHT22;2619;47.868;11.892;2023-03-14T04:16:19;7.30;99.90
5200;DHT22;2619;47.868;11.892;2023-03-14T04:18:45;7.30;99.90
5200;DHT22;2619;47.868;11.892;2023-03-14T04:21:10;7.30;99.90
5200;DHT22;2619;47.868;11.892;2023-03-14T04:23:36;7.30;99.90
5200;DHT22;2619;47.868;11.892;2023-03-14T04:26:02;7.20;99.90
5200;DHT22;2619;47.868;11.892;2023-03-14T04:28:27;7.20;99.90
5200;DHT22;2619;47.868;11.892;2023-03-14T04:30:53;7.20;99.90
5200;DHT22;2619;47.868;11.892;2023-03-14T04:33:19;7.20;99.90
5200;DHT22;2619;47.868;11.892;2023-03-14T04:35:45;7.20;99.90
5200;DHT22;2619;47.868;11.892;2023-03-14T04:38:11;7.20;99.90
5200;DHT22;2619;47.868;11.892;2023-03-14T04:40:41;7.20;99.90
5200;DHT22;2619;47.868;11.892;2023-03-14T04:43:08;7.20;99.90
5200;DHT22;2619;47.868;11.892;2023-03-14T04:45:35;7.10;99.90
5200;DHT22;2619;47.868;11.892;2023-03-14T04:48:01;7.20;99.90
5200;DHT22;2619;47.868;11.892;2023-03-14T04:50:27;7.20;99.90
5200;DHT22;2619;47.868;11.892;2023-03-14T04:52:52;7.20;99.90
5200;DHT22;2619;47.868;11.892;2023-03-14T04:55:18;7.20;99.90
5200;DHT22;2619;47.868;11.892;2023-03-14T04:57:44;7.20;99.90
5200;DHT22;2619;47.868;11.892;2023-03-14T05:00:10;7.20;99.90
5200;DHT22;2619;47.868;11.892;2023-03-14T05:02:36;7.20;99.90
5200;DHT22;2619;47.868;11.892;2023-03-14T05:05:02;7.10;99.90
5200;DHT22;2619;47.868;11.892;2023-03-14T05:07:27;7.20;99.90
5200;DHT22;2619;47.868;11.892;2023-03-14T05:09:53;7.20;99.90
5200;DHT22;2619;47.868;11.892;2023-03-14T05:12:20;7.10;99.90
5200;DHT22;2619;47.868;11.892;2023-03-14T05:14:45;7.10;99.90
5200;DHT22;2619;47.868;11.892;2023-03-14T05:17:11;7.10;99.90
5200;DHT22;2619;47.868;11.892;2023-03-14T05:19:40;7.10;99.90
5200;DHT22;2619;47.868;11.892;2023-03-14T05:22:05;7.10;99.90
5200;DHT22;2619;47.868;11.892;2023-03-14T05:24:31;7.10;99.90
5200;DHT22;2619;47.868;11.892;2023-03-14T05:26:56;7.10;99.90
5200;DHT22;2619;47.868;11.892;2023-03-14T05:29:22;7.10;99.90
5200;DHT22;2619;47.868;11.892;2023-03-14T05:31:47;7.10;99.90
5200;DHT22;2619;47.868;11.892;2023-03-14T05:34:13;7.10;99.90
5200;DHT22;2619;47.868;11.892;2023-03-14T05:36:39;7.10;99.90
5200;DHT22;2619;47.868;11.892;2023-03-14T05:39:04;7.10;99.90
5200;DHT22;2619;47.868;11.892;2023-03-14T05:41:30;7.10;99.90
5200;DHT22;2619;47.868;11.892;2023-03-14T05:43:55;7.10;99.90
5200;DHT22;2619;47.868;11.892;2023-03-14T05:46:21;7.10;99.90
5200;DHT22;2619;47.868;11.892;2023-03-14T05:48:47;7.00;99.90
5200;DHT22;2619;47.868;11.892;2023-03-14T05:51:12;7.10;99.90
5200;DHT22;2619;47.868;11.892;2023-03-14T05:53:38;7.00;99.90
5200;DHT22;2619;47.868;11.892;2023-03-14T05:56:04;7.10;99.90
5200;DHT22;2619;47.868;11.892;2023-03-14T05:58:29;7.00;99.90
5200;DHT22;2619;47.868;11.892;2023-03-14T06:00:55;7.10;99.90
5200;DHT22;2619;47.868;11.892;2023-03-14T06:03:20;7.10;99.90
5200;DHT22;2619;47.868;11.892;2023-03-14T06:05:46;7.10;99.90
5200;DHT22;2619;47.868;11.892;2023-03-14T06:08:14;7.20;99.90
5200;DHT22;2619;47.868;11.892;2023-03-14T06:10:40;7.20;99.90
5200;DHT22;2619;47.868;11.892;2023-03-14T06:13:05;7.20;99.90
5200;DHT22;2619;47.868;11.892;2023-03-14T06:15:31;7.10;99.90
5200;DHT22;2619;47.868;11.892;2023-03-14T06:17:58;7.10;99.90
5200;DHT22;2619;47.868;11.892;2023-03-14T06:20:23;7.10;99.90
5200;DHT22;2619;47.868;11.892;2023-03-14T06:22:49;7.10;99.90
5200;DHT22;2619;47.868;11.892;2023-03-14T06:25:15;7.10;99.90
5200;DHT22;2619;47.868;11.892;2023-03-14T06:27:40;7.10;99.90
5200;DHT22;2619;47.868;11.892;2023-03-14T06:30:06;7.10;99.90
5200;DHT22;2619;47.868;11.892;2023-03-14T06:32:32;7.10;99.90
5200;DHT22;2619;47.868;11.892;2023-03-14T06:34:58;7.20;99.90
5200;DHT22;2619;47.868;11.892;2023-03-14T06:37:27;7.20;99.90
5200;DHT22;2619;47.868;11.892;2023-03-14T06:39:54;7.30;99.90
5200;DHT22;2619;47.868;11.892;2023-03-14T06:42:19;7.30;99.90
5200;DHT22;2619;47.868;11.892;2023-03-14T06:44:45;7.30;99.90
5200;DHT22;2619;47.868;11.892;2023-03-14T06:47:11;7.30;99.90
5200;DHT22;2619;47.868;11.892;2023-03-14T06:49:36;7.30;99.90
5200;DHT22;2619;47.868;11.892;2023-03-14T06:52:02;7.30;99.90
5200;DHT22;2619;47.868;11.892;2023-03-14T06:54:27;7.40;99.90
5200;DHT22;2619;47.868;11.892;2023-03-14T06:56:53;7.40;99.90
5200;DHT22;2619;47.868;11.892;2023-03-14T06:59:18;7.40;99.90
5200;DHT22;2619;47.868;11.892;2023-03-14T07:01:44;7.40;99.90
5200;DHT22;2619;47.868;11.892;2023-03-14T07:04:10;7.30;99.90
5200;DHT22;2619;47.868;11.892;2023-03-14T07:06:36;7.30;99.90
5200;DHT22;2619;47.868;11.892;2023-03-14T07:09:02;7.40;99.90
5200;DHT22;2619;47.868;11.892;2023-03-14T07:11:28;7.40;99.90
5200;DHT22;2619;47.868;11.892;2023-03-14T07:13:53;7.50;99.90
5200;DHT22;2619;47.868;11.892;2023-03-14T07:16:19;7.50;99.90
5200;DHT22;2619;47.868;11.892;2023-03-14T07:18:45;7.50;99.90
5200;DHT22;2619;47.868;11.892;2023-03-14T07:21:11;7.50;99.90
5200;DHT22;2619;47.868;11.892;2023-03-14T07:23:38;7.50;99.90
5200;DHT22;2619;47.868;11.892;2023-03-14T07:26:04;7.40;99.90
5200;DHT22;2619;47.868;11.892;2023-03-14T07:28:30;7.40;99.90
5200;DHT22;2619;47.868;11.892;2023-03-14T07:30:55;7.50;99.90
5200;DHT22;2619;47.868;11.892;2023-03-14T07:33:21;7.50;99.90
5200;DHT22;2619;47.868;11.892;2023-03-14T07:35:47;7.60;99.90
5200;DHT22;2619;47.868;11.892;2023-03-14T07:38:14;7.70;99.90
5200;DHT22;2619;47.868;11.892;2023-03-14T07:40:39;7.70;99.90
5200;DHT22;2619;47.868;11.892;2023-03-14T07:43:05;7.80;99.90
5200;DHT22;2619;47.868;11.892;2023-03-14T07:45:31;7.80;99.90
5200;DHT22;2619;47.868;11.892;2023-03-14T07:47:56;7.90;99.90
5200;DHT22;2619;47.868;11.892;2023-03-14T07:50:24;7.80;99.90
5200;DHT22;2619;47.868;11.892;2023-03-14T07:52:49;7.80;99.90
5200;DHT22;2619;47.868;11.892;2023-03-14T07:55:15;7.90;99.90
5200;DHT22;2619;47.868;11.892;2023-03-14T07:57:41;8.00;99.90
5200;DHT22;2619;47.868;11.892;2023-03-14T08:00:07;8.10;99.90
5200;DHT22;2619;47.868;11.892;2023-03-14T08:02:33;8.20;99.90
5200;DHT22;2619;47.868;11.892;2023-03-14T08:04:59;8.20;99.90
5200;DHT22;2619;47.868;11.892;2023-03-14T08:07:24;8.30;99.90
5200;DHT22;2619;47.868;11.892;2023-03-14T08:09:50;8.30;99.90
5200;DHT22;2619;47.868;11.892;2023-03-14T08:12:15;8.30;99.90
5200;DHT22;2619;47.868;11.892;2023-03-14T08:14:41;8.20;99.90
5200;DHT22;2619;47.868;11.892;2023-03-14T08:17:07;8.20;99.90
5200;DHT22;2619;47.868;11.892;2023-03-14T08:19:33;8.20;99.90
5200;DHT22;2619;47.868;11.892;2023-03-14T08:21:59;8.20;99.90
5200;DHT22;2619;47.868;11.892;2023-03-14T08:24:25;8.10;99.90
5200;DHT22;2619;47.868;11.892;2023-03-14T08:26:50;8.00;99.90
5200;DHT22;2619;47.868;11.892;2023-03-14T08:29:16;8.00;99.90
5200;DHT22;2619;47.868;11.892;2023-03-14T08:31:41;8.10;99.90
5200;DHT22;2619;47.868;11.892;2023-03-14T08:34:07;8.20;99.90
5200;DHT22;2619;47.868;11.892;2023-03-14T08:36:33;8.30;99.90
5200;DHT22;2619;47.868;11.892;2023-03-14T08:38:58;8.40;99.90
5200;DHT22;2619;47.868;11.892;2023-03-14T08:41:24;8.40;99.90
5200;DHT22;2619;47.868;11.892;2023-03-14T08:43:50;8.50;99.90
5200;DHT22;2619;47.868;11.892;2023-03-14T08:46:15;8.50;99.90
5200;DHT22;2619;47.868;11.892;2023-03-14T08:48:41;8.50;99.90
5200;DHT22;2619;47.868;11.892;2023-03-14T08:51:11;8.50;99.90
5200;DHT22;2619;47.868;11.892;2023-03-14T08:53:38;8.40;99.90
5200;DHT22;2619;47.868;11.892;2023-03-14T08:56:04;8.40;99.90
5200;DHT22;2619;47.868;11.892;2023-03-14T08:58:31;8.30;99.90
5200;DHT22;2619;47.868;11.892;2023-03-14T09:00:57;8.40;99.90
5200;DHT22;2619;47.868;11.892;2023-03-14T09:03:24;8.50;99.90
5200;DHT22;2619;47.868;11.892;2023-03-14T09:05:50;8.50;99.90
5200;DHT22;2619;47.868;11.892;2023-03-14T09:08:16;8.50;99.90
5200;DHT22;2619;47.868;11.892;2023-03-14T09:10:41;8.60;99.90
5200;DHT22;2619;47.868;11.892;2023-03-14T09:13:07;8.60;99.90
5200;DHT22;2619;47.868;11.892;2023-03-14T09:15:32;8.60;99.90
5200;DHT22;2619;47.868;11.892;2023-03-14T09:17:58;8.60;99.90
5200;DHT22;2619;47.868;11.892;2023-03-14T09:20:24;8.60;99.90
5200;DHT22;2619;47.868;11.892;2023-03-14T09:22:50;8.50;99.90
5200;DHT22;2619;47.868;11.892;2023-03-14T09:25:15;8.50;99.90
5200;DHT22;2619;47.868;11.892;2023-03-14T09:27:41;8.50;99.90
5200;DHT22;2619;47.868;11.892;2023-03-14T09:30:07;8.60;99.90
5200;DHT22;2619;47.868;11.892;2023-03-14T09:32:33;8.50;99.90
5200;DHT22;2619;47.868;11.892;2023-03-14T09:34:59;8.40;99.90
5200;DHT22;2619;47.868;11.892;2023-03-14T09:37:25;8.30;99.90
5200;DHT22;2619;47.868;11.892;2023-03-14T09:39:50;8.30;99.90
5200;DHT22;2619;47.868;11.892;2023-03-14T09:42:23;8.20;99.90
5200;DHT22;2619;47.868;11.892;2023-03-14T09:47:19;8.30;99.90
5200;DHT22;2619;47.868;11.892;2023-03-14T09:49:45;8.40;99.90
5200;DHT22;2619;47.868;11.892;2023-03-14T09:52:24;8.40;99.90
5200;DHT22;2619;47.868;11.892;2023-03-14T09:54:54;8.30;99.90
5200;DHT22;2619;47.868;11.892;2023-03-14T09:57:24;8.40;99.90
5200;DHT22;2619;47.868;11.892;2023-03-14T09:59:53;8.40;99.90
5200;DHT22;2619;47.868;11.892;2023-03-14T10:02:25;8.50;99.90
5200;DHT22;2619;47.868;11.892;2023-03-14T10:04:54;8.50;99.90
5200;DHT22;2619;47.868;11.892;2023-03-14T10:07:28;8.60;99.90
5200;DHT22;2619;47.868;11.892;2023-03-14T10:09:54;8.50;99.90
5200;DHT22;2619;47.868;11.892;2023-03-14T10:12:32;8.50;99.90
5200;DHT22;2619;47.868;11.892;2023-03-14T10:15:03;8.40;99.90
5200;DHT22;2619;47.868;11.892;2023-03-14T10:17:29;8.40;99.90
5200;DHT22;2619;47.868;11.892;2023-03-14T10:19:58;8.50;99.90
5200;DHT22;2619;47.868;11.892;2023-03-14T10:22:34;8.70;99.90
5200;DHT22;2619;47.868;11.892;2023-03-14T10:25:03;8.90;99.90
5200;DHT22;2619;47.868;11.892;2023-03-14T10:27:34;9.10;99.90
5200;DHT22;2619;47.868;11.892;2023-03-14T10:30:04;9.20;99.90
5200;DHT22;2619;47.868;11.892;2023-03-14T10:32:36;9.40;99.90
5200;DHT22;2619;47.868;11.892;2023-03-14T10:38:00;9.70;99.90
5200;DHT22;2619;47.868;11.892;2023-03-14T10:40:40;10.00;99.90
5200;DHT22;2619;47.868;11.892;2023-03-14T10:43:13;10.40;99.90
5200;DHT22;2619;47.868;11.892;2023-03-14T10:45:41;10.80;99.90
5200;DHT22;2619;47.868;11.892;2023-03-14T10:48:33;11.10;99.90
5200;DHT22;2619;47.868;11.892;2023-03-14T10:51:12;11.50;99.90
5200;DHT22;2619;47.868;11.892;2023-03-14T10:53:56;11.70;99.90
5200;DHT22;2619;47.868;11.892;2023-03-14T10:56:24;12.20;99.90
5200;DHT22;2619;47.868;11.892;2023-03-14T10:58:56;12.40;99.90
5200;DHT22;2619;47.868;11.892;2023-03-14T11:09:33;12.90;99.90
5200;DHT22;2619;47.868;11.892;2023-03-14T11:14:48;13.20;99.90
5200;DHT22;2619;47.868;11.892;2023-03-14T11:17:48;13.30;99.90
5200;DHT22;2619;47.868;11.892;2023-03-14T11:22:47;13.40;99.90
5200;DHT22;2619;47.868;11.892;2023-03-14T11:25:39;13.10;99.90
5200;DHT22;2619;47.868;11.892;2023-03-14T11:28:41;13.10;99.90
5200;DHT22;2619;47.868;11.892;2023-03-14T11:31:26;13.30;99.90
5200;DHT22;2619;47.868;11.892;2023-03-14T11:39:16;13.70;99.90
5200;DHT22;2619;47.868;11.892;2023-03-14T11:41:52;13.80;99.90
5200;DHT22;2619;47.868;11.892;2023-03-14T11:44:20;13.60;99.90
5200;DHT22;2619;47.868;11.892;2023-03-14T11:46:52;13.70;99.90
5200;DHT22;2619;47.868;11.892;2023-03-14T11:51:58;14.60;99.90
5200;DHT22;2619;47.868;11.892;2023-03-14T11:57:32;15.10;99.90
5200;DHT22;2619;47.868;11.892;2023-03-14T12:00:17;15.40;99.90
5200;DHT22;2619;47.868;11.892;2023-03-14T12:02:48;15.50;99.90
5200;DHT22;2619;47.868;11.892;2023-03-14T12:10:51;15.30;99.90
5200;DHT22;2619;47.868;11.892;2023-03-14T12:13:18;15.60;99.90
5200;DHT22;2619;47.868;11.892;2023-03-14T12:15:54;15.50;99.90
5200;DHT22;2619;47.868;11.892;2023-03-14T12:18:27;15.40;99.90
5200;DHT22;2619;47.868;11.892;2023-03-14T12:21:03;15.40;99.90
5200;DHT22;2619;47.868;11.892;2023-03-14T12:23:51;15.90;99.90
5200;DHT22;2619;47.868;11.892;2023-03-14T12:26:21;16.30;99.90
5200;DHT22;2619;47.868;11.892;2023-03-14T12:39:21;16.60;99.90
5200;DHT22;2619;47.868;11.892;2023-03-14T12:42:17;16.20;99.90
5200;DHT22;2619;47.868;11.892;2023-03-14T12:44:48;16.00;99.90
5200;DHT22;2619;47.868;11.892;2023-03-14T12:49:51;15.70;99.90
5200;DHT22;2619;47.868;11.892;2023-03-14T12:52:33;15.60;99.90
5200;DHT22;2619;47.868;11.892;2023-03-14T12:55:19;15.50;99.90
5200;DHT22;2619;47.868;11.892;2023-03-14T13:00:44;15.00;99.90
5200;DHT22;2619;47.868;11.892;2023-03-14T13:03:18;14.50;99.90
5200;DHT22;2619;47.868;11.892;2023-03-14T13:05:57;13.90;99.90
5200;DHT22;2619;47.868;11.892;2023-03-14T13:08:35;13.30;99.90
5200;DHT22;2619;47.868;11.892;2023-03-14T13:11:04;12.70;99.90
5200;DHT22;2619;47.868;11.892;2023-03-14T13:13:34;12.40;99.90
5200;DHT22;2619;47.868;11.892;2023-03-14T13:16:01;12.00;99.90
5200;DHT22;2619;47.868;11.892;2023-03-14T13:18:35;11.90;99.90
5200;DHT22;2619;47.868;11.892;2023-03-14T13:21:37;11.70;99.90
5200;DHT22;2619;47.868;11.892;2023-03-14T13:24:07;11.40;99.90
5200;DHT22;2619;47.868;11.892;2023-03-14T13:26:44;11.00;99.90
5200;DHT22;2619;47.868;11.892;2023-03-14T13:29:32;10.70;99.90
5200;DHT22;2619;47.868;11.892;2023-03-14T13:32:00;10.30;99.90
5200;DHT22;2619;47.868;11.892;2023-03-14T13:34:28;10.30;99.90
5200;DHT22;2619;47.868;11.892;2023-03-14T13:36:55;10.30;99.90
5200;DHT22;2619;47.868;11.892;2023-03-14T13:39:23;10.30;99.90
5200;DHT22;2619;47.868;11.892;2023-03-14T13:41:55;10.40;99.90
5200;DHT22;2619;47.868;11.892;2023-03-14T13:44:33;10.30;99.90
5200;DHT22;2619;47.868;11.892;2023-03-14T13:47:04;10.20;99.90
5200;DHT22;2619;47.868;11.892;2023-03-14T13:49:32;10.20;99.90
5200;DHT22;2619;47.868;11.892;2023-03-14T13:52:01;10.10;99.90
5200;DHT22;2619;47.868;11.892;2023-03-14T13:54:27;10.10;99.90
5200;DHT22;2619;47.868;11.892;2023-03-14T13:57:00;10.00;99.90
5200;DHT22;2619;47.868;11.892;2023-03-14T13:59:35;10.00;99.90
5200;DHT22;2619;47.868;11.892;2023-03-14T14:02:06;9.90;99.90
5200;DHT22;2619;47.868;11.892;2023-03-14T14:04:37;9.60;99.90
5200;DHT22;2619;47.868;11.892;2023-03-14T14:07:13;9.50;99.90
5200;DHT22;2619;47.868;11.892;2023-03-14T14:09:47;9.30;99.90
5200;DHT22;2619;47.868;11.892;2023-03-14T14:12:33;9.10;99.90
5200;DHT22;2619;47.868;11.892;2023-03-14T14:15:11;9.00;99.90
5200;DHT22;2619;47.868;11.892;2023-03-14T14:17:53;8.90;99.90
5200;DHT22;2619;47.868;11.892;2023-03-14T14:20:38;8.80;99.90
5200;DHT22;2619;47.868;11.892;2023-03-14T14:23:09;8.60;99.90
5200;DHT22;2619;47.868;11.892;2023-03-14T14:25:36;8.50;99.90
5200;DHT22;2619;47.868;11.892;2023-03-14T14:28:30;8.50;99.90
5200;DHT22;2619;47.868;11.892;2023-03-14T14:33:58;8.40;99.90
5200;DHT22;2619;47.868;11.892;2023-03-14T14:36:32;8.40;99.90
5200;DHT22;2619;47.868;11.892;2023-03-14T14:39:45;8.40;99.90
5200;DHT22;2619;47.868;11.892;2023-03-14T14:42:03;8.50;99.90
5200;DHT22;2619;47.868;11.892;2023-03-14T14:44:34;8.60;99.90
5200;DHT22;2619;47.868;11.892;2023-03-14T14:47:02;8.50;99.90
5200;DHT22;2619;47.868;11.892;2023-03-14T14:49:32;8.20;99.90
5200;DHT22;2619;47.868;11.892;2023-03-14T14:52:04;8.00;99.90
5200;DHT22;2619;47.868;11.892;2023-03-14T14:54:38;7.80;99.90
5200;DHT22;2619;47.868;11.892;2023-03-14T14:57:12;7.60;99.90
5200;DHT22;2619;47.868;11.892;2023-03-14T14:59:42;7.60;99.90
5200;DHT22;2619;47.868;11.892;2023-03-14T15:04:56;7.10;99.90
5200;DHT22;2619;47.868;11.892;2023-03-14T15:07:21;6.90;99.90
5200;DHT22;2619;47.868;11.892;2023-03-14T15:09:47;6.70;99.90
5200;DHT22;2619;47.868;11.892;2023-03-14T15:12:12;6.70;99.90
5200;DHT22;2619;47.868;11.892;2023-03-14T15:14:38;6.60;99.90
5200;DHT22;2619;47.868;11.892;2023-03-14T15:17:05;6.60;99.90
5200;DHT22;2619;47.868;11.892;2023-03-14T15:19:31;6.50;99.90
5200;DHT22;2619;47.868;11.892;2023-03-14T15:21:58;6.50;99.90
5200;DHT22;2619;47.868;11.892;2023-03-14T15:24:23;6.50;99.90
5200;DHT22;2619;47.868;11.892;2023-03-14T15:26:49;6.40;99.90
5200;DHT22;2619;47.868;11.892;2023-03-14T15:29:15;6.50;99.90
5200;DHT22;2619;47.868;11.892;2023-03-14T15:31:41;6.60;99.90
5200;DHT22;2619;47.868;11.892;2023-03-14T15:34:08;6.60;99.90
5200;DHT22;2619;47.868;11.892;2023-03-14T15:36:34;6.70;99.90
5200;DHT22;2619;47.868;11.892;2023-03-14T15:39:01;6.70;99.90
5200;DHT22;2619;47.868;11.892;2023-03-14T15:41:27;6.80;99.90
5200;DHT22;2619;47.868;11.892;2023-03-14T15:43:53;6.80;99.90
5200;DHT22;2619;47.868;11.892;2023-03-14T15:46:19;6.80;99.90
5200;DHT22;2619;47.868;11.892;2023-03-14T15:48:48;6.80;99.90
5200;DHT22;2619;47.868;11.892;2023-03-14T15:51:14;6.70;99.90
5200;DHT22;2619;47.868;11.892;2023-03-14T15:53:40;6.70;99.90
5200;DHT22;2619;47.868;11.892;2023-03-14T15:56:07;6.60;99.90
5200;DHT22;2619;47.868;11.892;2023-03-14T15:58:36;6.60;99.90
5200;DHT22;2619;47.868;11.892;2023-03-14T16:01:05;6.50;99.90
5200;DHT22;2619;47.868;11.892;2023-03-14T16:03:33;6.50;99.90
5200;DHT22;2619;47.868;11.892;2023-03-14T16:05:59;6.30;99.90
5200;DHT22;2619;47.868;11.892;2023-03-14T16:08:25;6.20;99.90
5200;DHT22;2619;47.868;11.892;2023-03-14T16:10:51;6.00;99.90
5200;DHT22;2619;47.868;11.892;2023-03-14T16:13:18;5.80;99.90
5200;DHT22;2619;47.868;11.892;2023-03-14T16:16:02;5.70;99.90
5200;DHT22;2619;47.868;11.892;2023-03-14T16:18:29;5.50;99.90
5200;DHT22;2619;47.868;11.892;2023-03-14T16:20:57;5.50;99.90
5200;DHT22;2619;47.868;11.892;2023-03-14T16:23:24;5.40;99.90
5200;DHT22;2619;47.868;11.892;2023-03-14T16:25:50;5.30;99.90
5200;DHT22;2619;47.868;11.892;2023-03-14T16:28:16;5.30;99.90
5200;DHT22;2619;47.868;11.892;2023-03-14T16:30:42;5.30;99.90
5200;DHT22;2619;47.868;11.892;2023-03-14T16:33:08;5.30;99.90
5200;DHT22;2619;47.868;11.892;2023-03-14T16:35:38;5.30;99.90
5200;DHT22;2619;47.868;11.892;2023-03-14T16:38:04;5.40;99.90
5200;DHT22;2619;47.868;11.892;2023-03-14T16:40:30;5.40;99.90
5200;DHT22;2619;47.868;11.892;2023-03-14T16:42:55;5.50;99.90
5200;DHT22;2619;47.868;11.892;2023-03-14T16:45:21;5.50;99.90
5200;DHT22;2619;47.868;11.892;2023-03-14T16:47:46;5.40;99.90
5200;DHT22;2619;47.868;11.892;2023-03-14T16:50:12;5.50;99.90
5200;DHT22;2619;47.868;11.892;2023-03-14T16:52:38;5.40;99.90
5200;DHT22;2619;47.868;11.892;2023-03-14T16:55:03;5.50;99.90
5200;DHT22;2619;47.868;11.892;2023-03-14T16:57:30;5.50;99.90
5200;DHT22;2619;47.868;11.892;2023-03-14T16:59:56;5.50;99.90
5200;DHT22;2619;47.868;11.892;2023-03-14T17:02:21;5.50;99.90
5200;DHT22;2619;47.868;11.892;2023-03-14T17:04:47;5.50;99.90
5200;DHT22;2619;47.868;11.892;2023-03-14T17:07:12;5.60;99.90
5200;DHT22;2619;47.868;11.892;2023-03-14T17:09:38;5.60;99.90
5200;DHT22;2619;47.868;11.892;2023-03-14T17:12:05;5.70;99.90
5200;DHT22;2619;47.868;11.892;2023-03-14T17:14:30;5.80;99.90
5200;DHT22;2619;47.868;11.892;2023-03-14T17:16:56;5.90;99.90